Time;durP1;ratioP1;P1;durP2;ratioP2;P2;SDS_P1;SDS_P2;PMS_P1;PMS_P2;Temp;Humidity;BMP_temperature;BMP_pressure;BME280_temperature;BME280_humidity;BME280_pressure;Samples;Min_cycle;Max_cycle;Signal;HPM_P1;HPM_P2
2023/06/24 00:01:01;;;;;;;5.30;4.80;;;;;;;;;;5050714;28;20538;-79
2023/06/24 00:03:27;;;;;;;5.60;5.00;;;;;;;;;;5052390;28;20706;-79
2023/06/24 00:05:56;;;;;;;6.33;4.73;;;;;;;;;;5045142;28;20189;-79
2023/06/24 00:08:23;;;;;;;6.07;4.87;;;;;;;;;;5032890;28;20536;-79
2023/06/24 00:10:49;;;;;;;5.93;5.30;;;;;;;;;;5032590;28;20210;-79
2023/06/24 00:13:16;;;;;;;5.50;5.00;;;;;;;;;;5033276;28;20198;-79
2023/06/24 00:15:42;;;;;;;5.37;4.80;;;;;;;;;;5023714;28;20193;-79
2023/06/24 00:18:12;;;;;;;5.60;5.00;;;;;;;;;;5036003;28;20178;-79
2023/06/24 00:20:38;;;;;;;5.23;4.80;;;;;;;;;;5038216;28;20675;-79
2023/06/24 00:23:04;;;;;;;6.57;4.90;;;;;;;;;;5036740;28;20214;-79
2023/06/24 00:25:30;;;;;;;5.47;4.97;;;;;;;;;;5040289;28;20189;-79
2023/06/24 00:27:57;;;;;;;6.80;4.70;;;;;;;;;;5037349;28;20244;-79
2023/06/24 00:30:23;;;;;;;5.43;4.67;;;;;;;;;;5032878;28;20186;-79
2023/06/24 00:32:49;;;;;;;5.17;4.67;;;;;;;;;;5035195;28;20213;-79
2023/06/24 00:35:15;;;;;;;5.63;4.90;;;;;;;;;;5038459;28;20189;-79
2023/06/24 00:37:45;;;;;;;5.20;4.70;;;;;;;;;;5038898;28;20682;-79
2023/06/24 00:40:14;;;;;;;5.43;4.93;;;;;;;;;;5043610;28;20205;-79
2023/06/24 00:42:41;;;;;;;4.93;4.43;;;;;;;;;;5051571;28;20221;-79
2023/06/24 00:45:09;;;;;;;5.80;4.70;;;;;;;;;;5044651;28;20194;-79
2023/06/24 00:47:36;;;;;;;7.07;4.73;;;;;;;;;;5033043;28;20186;-79
2023/06/24 00:50:02;;;;;;;5.67;4.50;;;;;;;;;;5023345;28;20232;-79
2023/06/24 00:52:28;;;;;;;4.80;4.40;;;;;;;;;;5032028;28;20614;-79
2023/06/24 00:54:55;;;;;;;4.73;4.33;;;;;;;;;;5019152;28;20186;-79
2023/06/24 00:57:25;;;;;;;5.20;4.60;;;;;;;;;;5004157;28;20229;-79
2023/06/24 00:59:53;;;;;;;7.50;5.30;;;;;;;;;;5051843;28;20205;-79
2023/06/24 01:02:20;;;;;;;5.77;5.27;;;;;;;;;;5038476;28;20198;-79
2023/06/24 01:04:48;;;;;;;5.70;5.20;;;;;;;;;;5017099;28;20174;-79
2023/06/24 01:07:15;;;;;;;5.80;5.20;;;;;;;;;;5036284;28;20226;-79
2023/06/24 01:09:41;;;;;;;8.67;5.10;;;;;;;;;;5033822;28;20175;-79
2023/06/24 01:12:08;;;;;;;6.30;5.70;;;;;;;;;;5034733;28;20178;-79
2023/06/24 01:14:35;;;;;;;5.57;5.07;;;;;;;;;;5032576;28;20198;-79
2023/06/24 01:17:16;;;;;;;6.77;5.27;;;;;;;;;;5016468;28;20630;-79
2023/06/24 01:20:10;;;;;;;5.13;4.63;;;;;;;;;;5053415;28;20182;-79
2023/06/24 01:22:55;;;;;;;5.50;5.00;;;;;;;;;;5052309;28;20222;-79
2023/06/24 01:25:33;;;;;;;7.03;5.00;;;;;;;;;;5036037;28;20590;-79
2023/06/24 01:28:03;;;;;;;5.57;4.83;;;;;;;;;;5049154;28;20228;-79
2023/06/24 01:30:29;;;;;;;6.00;4.70;;;;;;;;;;5032101;28;20202;-78
2023/06/24 01:32:56;;;;;;;5.80;5.00;;;;;;;;;;5031530;28;20197;-79
2023/06/24 01:35:26;;;;;;;4.77;4.37;;;;;;;;;;5034230;28;20194;-79
2023/06/24 01:37:53;;;;;;;4.80;4.30;;;;;;;;;;5047384;28;20241;-79
2023/06/24 01:40:19;;;;;;;6.57;4.90;;;;;;;;;;5035321;28;20189;-79
2023/06/24 01:42:46;;;;;;;5.87;4.93;;;;;;;;;;5035397;28;20295;-79
2023/06/24 01:45:24;;;;;;;6.57;5.40;;;;;;;;;;5051185;28;20198;-79
2023/06/24 01:47:55;;;;;;;7.37;4.83;;;;;;;;;;5048656;28;20169;-78
2023/06/24 01:50:22;;;;;;;5.57;4.97;;;;;;;;;;5051433;28;20190;-79
2023/06/24 01:52:51;;;;;;;6.07;4.80;;;;;;;;;;5035008;28;20217;-78
2023/06/24 01:55:20;;;;;;;8.43;5.47;;;;;;;;;;5053006;28;20248;-79
2023/06/24 01:57:48;;;;;;;5.80;4.90;;;;;;;;;;5026113;28;20229;-79
2023/06/24 02:00:15;;;;;;;6.00;4.70;;;;;;;;;;5023694;28;20202;-79
2023/06/24 02:02:51;;;;;;;6.73;5.03;;;;;;;;;;5032633;28;20689;-78
2023/06/24 02:05:18;;;;;;;11.30;5.63;;;;;;;;;;5038898;28;20185;-79
2023/06/24 02:07:47;;;;;;;6.03;5.30;;;;;;;;;;5041609;28;20578;-79
2023/06/24 02:10:14;;;;;;;7.70;5.50;;;;;;;;;;5032807;28;20178;-79
2023/06/24 02:12:41;;;;;;;5.90;5.13;;;;;;;;;;5023551;28;20208;-79
2023/06/24 02:15:08;;;;;;;8.93;5.60;;;;;;;;;;5037325;28;20202;-79
2023/06/24 02:17:35;;;;;;;6.87;5.17;;;;;;;;;;5047354;28;20194;-79
2023/06/24 02:20:03;;;;;;;5.93;4.67;;;;;;;;;;5035548;28;20680;-79
2023/06/24 02:22:30;;;;;;;6.27;4.67;;;;;;;;;;5039458;28;20244;-79
2023/06/24 02:24:57;;;;;;;4.80;4.40;;;;;;;;;;5041291;28;20265;-78
2023/06/24 02:27:24;;;;;;;5.83;4.60;;;;;;;;;;5038452;28;20182;-79
2023/06/24 02:29:50;;;;;;;5.00;4.37;;;;;;;;;;5039439;28;20175;-79
2023/06/24 02:32:17;;;;;;;6.60;5.20;;;;;;;;;;5028173;28;20182;-79
2023/06/24 02:34:43;;;;;;;6.40;5.17;;;;;;;;;;5040348;28;20228;-79
2023/06/24 02:37:09;;;;;;;6.67;5.27;;;;;;;;;;5040854;28;20179;-79
2023/06/24 02:39:37;;;;;;;6.33;5.27;;;;;;;;;;5051443;28;20201;-79
2023/06/24 02:42:04;;;;;;;6.50;5.40;;;;;;;;;;5035235;28;20592;-79
2023/06/24 02:44:30;;;;;;;9.53;5.60;;;;;;;;;;5038107;28;20198;-78
2023/06/24 02:46:56;;;;;;;6.37;5.23;;;;;;;;;;5054189;28;20639;-79
2023/06/24 02:49:24;;;;;;;7.73;5.03;;;;;;;;;;5008156;28;20183;-78
2023/06/24 02:51:50;;;;;;;11.30;5.57;;;;;;;;;;5040074;28;20260;-79
2023/06/24 02:54:16;;;;;;;8.83;5.77;;;;;;;;;;5018519;28;20256;-79
2023/06/24 02:57:06;;;;;;;10.67;5.70;;;;;;;;;;5047693;28;20223;-79
2023/06/24 02:59:52;;;;;;;8.53;5.77;;;;;;;;;;5046051;28;20212;-79
2023/06/24 03:02:19;;;;;;;6.20;5.60;;;;;;;;;;5044004;28;20682;-79
2023/06/24 03:04:45;;;;;;;10.17;6.57;;;;;;;;;;5051984;28;20179;-78
2023/06/24 03:07:11;;;;;;;8.53;5.37;;;;;;;;;;5053032;28;20181;-79
2023/06/24 03:09:41;;;;;;;8.13;5.80;;;;;;;;;;5029713;28;20658;-79
2023/06/24 03:12:08;;;;;;;6.77;5.47;;;;;;;;;;5004388;28;20186;-79
2023/06/24 03:14:40;;;;;;;6.63;5.33;;;;;;;;;;5036613;28;20340;-79
2023/06/24 03:17:06;;;;;;;5.93;4.90;;;;;;;;;;5036948;28;20186;-79
2023/06/24 03:19:32;;;;;;;7.00;5.00;;;;;;;;;;5037288;28;20197;-79
2023/06/24 03:21:59;;;;;;;7.43;5.33;;;;;;;;;;5026547;28;20207;-78
2023/06/24 03:24:25;;;;;;;5.57;5.07;;;;;;;;;;5029439;28;20217;-79
2023/06/24 03:26:56;;;;;;;8.47;5.77;;;;;;;;;;5042410;28;20178;-79
2023/06/24 03:29:25;;;;;;;9.57;5.50;;;;;;;;;;5040585;28;20183;-79
2023/06/24 03:32:00;;;;;;;8.30;5.63;;;;;;;;;;5045300;28;20189;-79
2023/06/24 03:34:27;;;;;;;6.70;5.47;;;;;;;;;;5025492;28;20297;-79
2023/06/24 03:36:57;;;;;;;6.67;5.23;;;;;;;;;;5043719;28;20710;-79
2023/06/24 03:39:23;;;;;;;5.93;5.30;;;;;;;;;;5043278;28;20669;-79
2023/06/24 03:41:49;;;;;;;6.17;5.23;;;;;;;;;;5037365;28;20214;-78
2023/06/24 03:44:16;;;;;;;6.57;5.50;;;;;;;;;;5004426;28;20589;-79
2023/06/24 03:46:42;;;;;;;7.20;5.60;;;;;;;;;;5041842;28;20297;-78
2023/06/24 03:49:10;;;;;;;5.63;5.13;;;;;;;;;;5042326;28;20189;-78
2023/06/24 03:51:37;;;;;;;7.17;5.10;;;;;;;;;;5047376;28;20670;-78
2023/06/24 03:54:03;;;;;;;6.43;5.03;;;;;;;;;;5017545;28;20198;-79
2023/06/24 03:56:29;;;;;;;10.07;5.33;;;;;;;;;;5033590;28;20258;-78
2023/06/24 03:58:55;;;;;;;5.77;5.13;;;;;;;;;;5033377;28;20244;-79
2023/06/24 04:01:21;;;;;;;6.63;5.70;;;;;;;;;;5033606;28;20173;-78
2023/06/24 04:03:47;;;;;;;6.77;5.67;;;;;;;;;;5046076;28;20237;-79
2023/06/24 04:06:14;;;;;;;6.57;5.57;;;;;;;;;;5042168;28;20178;-79
2023/06/24 04:08:42;;;;;;;8.00;5.60;;;;;;;;;;5035409;28;20175;-78
2023/06/24 04:11:09;;;;;;;6.10;5.30;;;;;;;;;;5036740;28;20192;-78
2023/06/24 04:13:35;;;;;;;7.27;5.30;;;;;;;;;;5044359;28;20206;-79
2023/06/24 04:16:02;;;;;;;7.67;5.50;;;;;;;;;;5035258;28;21052;-79
2023/06/24 04:18:28;;;;;;;7.33;5.23;;;;;;;;;;5047035;28;20265;-78
2023/06/24 04:20:54;;;;;;;6.70;5.63;;;;;;;;;;5038228;28;20216;-79
2023/06/24 04:23:21;;;;;;;8.60;5.70;;;;;;;;;;5025007;28;20244;-79
2023/06/24 04:25:47;;;;;;;7.27;5.50;;;;;;;;;;5017362;28;20213;-78
2023/06/24 04:28:13;;;;;;;8.47;5.60;;;;;;;;;;5051437;28;20257;-79
2023/06/24 04:30:40;;;;;;;6.70;5.30;;;;;;;;;;5032065;28;20643;-79
2023/06/24 04:33:09;;;;;;;6.03;5.50;;;;;;;;;;5037953;28;20205;-79
2023/06/24 04:35:35;;;;;;;6.67;5.53;;;;;;;;;;5053293;28;20256;-79
2023/06/24 04:38:02;;;;;;;5.53;4.97;;;;;;;;;;5034305;28;20193;-79
2023/06/24 04:40:28;;;;;;;8.07;5.07;;;;;;;;;;5036571;28;20174;-79
2023/06/24 04:42:54;;;;;;;5.63;5.13;;;;;;;;;;5052301;28;20234;-79
2023/06/24 04:45:21;;;;;;;7.60;5.47;;;;;;;;;;5053747;28;20235;-79
2023/06/24 04:47:47;;;;;;;5.67;5.03;;;;;;;;;;5037601;28;20188;-78
2023/06/24 04:50:13;;;;;;;7.40;5.20;;;;;;;;;;5033579;28;20192;-79
2023/06/24 04:52:39;;;;;;;7.10;5.47;;;;;;;;;;5053604;28;20205;-79
2023/06/24 04:55:06;;;;;;;6.23;5.50;;;;;;;;;;5051341;28;20189;-78
2023/06/24 04:57:34;;;;;;;7.10;5.70;;;;;;;;;;5051507;28;20190;-78
2023/06/24 05:00:00;;;;;;;6.80;5.47;;;;;;;;;;5039086;28;20189;-78
2023/06/24 05:02:26;;;;;;;5.97;5.43;;;;;;;;;;5033665;28;20574;-78
2023/06/24 05:04:53;;;;;;;6.43;5.17;;;;;;;;;;5005006;28;20274;-78
2023/06/24 05:07:19;;;;;;;6.67;5.33;;;;;;;;;;5026166;28;20190;-78
2023/06/24 05:09:47;;;;;;;6.00;5.40;;;;;;;;;;5044015;28;20178;-78
2023/06/24 05:12:13;;;;;;;5.67;5.17;;;;;;;;;;5026412;28;20182;-78
2023/06/24 05:14:39;;;;;;;5.67;4.73;;;;;;;;;;5050666;28;20616;-79
2023/06/24 05:17:05;;;;;;;5.03;4.60;;;;;;;;;;5045633;28;20183;-78
2023/06/24 05:19:32;;;;;;;5.00;4.60;;;;;;;;;;5039100;28;20228;-78
2023/06/24 05:21:58;;;;;;;5.10;4.60;;;;;;;;;;5020537;28;20237;-78
2023/06/24 05:24:24;;;;;;;5.30;4.80;;;;;;;;;;5037680;28;20225;-78
2023/06/24 05:26:51;;;;;;;5.37;4.87;;;;;;;;;;5032518;28;20178;-78
2023/06/24 05:29:17;;;;;;;5.67;5.17;;;;;;;;;;5050630;28;20224;-78
2023/06/24 05:31:44;;;;;;;5.57;5.07;;;;;;;;;;5053308;28;20642;-78
2023/06/24 05:34:10;;;;;;;5.73;4.90;;;;;;;;;;5053730;28;20205;-78
2023/06/24 05:36:36;;;;;;;5.80;4.90;;;;;;;;;;5031845;28;20187;-78
2023/06/24 05:39:02;;;;;;;5.30;4.80;;;;;;;;;;5033475;28;20182;-78
2023/06/24 05:41:28;;;;;;;6.17;5.13;;;;;;;;;;5031924;28;20556;-78
2023/06/24 05:44:04;;;;;;;5.77;5.27;;;;;;;;;;5033685;28;20222;-78
2023/06/24 05:46:31;;;;;;;5.90;4.87;;;;;;;;;;5048457;28;20189;-78
2023/06/24 05:48:57;;;;;;;7.53;4.77;;;;;;;;;;5052366;28;20217;-78
2023/06/24 05:51:23;;;;;;;7.53;5.20;;;;;;;;;;5038477;28;20202;-78
2023/06/24 05:53:49;;;;;;;7.80;4.97;;;;;;;;;;5015811;28;20297;-78
2023/06/24 05:56:16;;;;;;;6.33;4.80;;;;;;;;;;5033421;28;20175;-78
2023/06/24 05:58:42;;;;;;;5.40;4.90;;;;;;;;;;5031620;28;20662;-78
2023/06/24 06:01:09;;;;;;;5.10;4.60;;;;;;;;;;5033246;28;20202;-78
2023/06/24 06:03:35;;;;;;;5.60;5.00;;;;;;;;;;5018158;28;20279;-78
2023/06/24 06:06:02;;;;;;;4.87;4.37;;;;;;;;;;5037309;28;20633;-78
2023/06/24 06:08:28;;;;;;;5.40;4.80;;;;;;;;;;5036164;28;20183;-78
2023/06/24 06:10:54;;;;;;;5.40;4.90;;;;;;;;;;5019439;28;20175;-78
2023/06/24 06:13:20;;;;;;;5.10;4.60;;;;;;;;;;5048648;28;20213;-78
2023/06/24 06:15:46;;;;;;;5.57;4.50;;;;;;;;;;5040426;28;20814;-80
2023/06/24 06:18:13;;;;;;;5.43;4.87;;;;;;;;;;5051032;28;20217;-79
2023/06/24 06:20:39;;;;;;;4.67;4.27;;;;;;;;;;5057188;28;20189;-78
2023/06/24 06:23:05;;;;;;;4.40;4.00;;;;;;;;;;5058673;28;20217;-79
2023/06/24 06:25:31;;;;;;;5.03;4.63;;;;;;;;;;5057660;28;20203;-79
2023/06/24 06:27:58;;;;;;;5.53;4.13;;;;;;;;;;5059282;28;20622;-79
2023/06/24 06:30:24;;;;;;;4.73;4.33;;;;;;;;;;5045949;28;20213;-79
2023/06/24 06:32:50;;;;;;;5.10;4.60;;;;;;;;;;5043608;28;20206;-74
2023/06/24 06:35:16;;;;;;;5.97;4.70;;;;;;;;;;5052888;28;20182;-71
2023/06/24 06:37:42;;;;;;;4.90;4.50;;;;;;;;;;5051479;28;20661;-71
2023/06/24 06:40:09;;;;;;;5.10;4.60;;;;;;;;;;5051264;28;20213;-71
2023/06/24 06:42:35;;;;;;;5.50;4.67;;;;;;;;;;5033643;28;20210;-72
2023/06/24 06:45:02;;;;;;;6.80;4.87;;;;;;;;;;5032689;28;20178;-71
2023/06/24 06:47:28;;;;;;;5.43;4.37;;;;;;;;;;5037835;28;20228;-72
2023/06/24 06:49:54;;;;;;;4.80;4.40;;;;;;;;;;5033420;28;20224;-71
2023/06/24 06:52:21;;;;;;;4.90;4.17;;;;;;;;;;5037374;28;20197;-71
2023/06/24 06:54:47;;;;;;;4.80;4.30;;;;;;;;;;5045661;28;20190;-72
2023/06/24 06:57:13;;;;;;;5.13;4.63;;;;;;;;;;5032714;28;20213;-71
2023/06/24 06:59:39;;;;;;;5.00;4.60;;;;;;;;;;5033382;28;20265;-71
2023/06/24 07:02:06;;;;;;;4.30;3.90;;;;;;;;;;5032320;28;20202;-71
2023/06/24 07:04:32;;;;;;;4.57;4.07;;;;;;;;;;5033517;28;20576;-71
2023/06/24 07:06:58;;;;;;;4.07;3.70;;;;;;;;;;5032576;28;20190;-73
2023/06/24 07:09:24;;;;;;;5.20;4.60;;;;;;;;;;5033779;28;20288;-71
2023/06/24 07:11:50;;;;;;;4.53;4.13;;;;;;;;;;5033823;28;20182;-72
2023/06/24 07:14:17;;;;;;;5.23;4.67;;;;;;;;;;5033784;28;20207;-73
2023/06/24 07:16:43;;;;;;;4.90;4.07;;;;;;;;;;5035462;28;20695;-72
2023/06/24 07:19:09;;;;;;;5.13;4.60;;;;;;;;;;5034517;28;20175;-73
2023/06/24 07:21:35;;;;;;;6.43;4.57;;;;;;;;;;5033562;28;20214;-73
2023/06/24 07:24:01;;;;;;;4.37;3.97;;;;;;;;;;5041863;28;20214;-72
2023/06/24 07:26:28;;;;;;;4.63;3.97;;;;;;;;;;5046780;28;20178;-72
2023/06/24 07:28:56;;;;;;;4.40;4.00;;;;;;;;;;5052451;28;20607;-71
2023/06/24 07:31:22;;;;;;;5.53;4.57;;;;;;;;;;5053151;28;20546;-71
2023/06/24 07:33:48;;;;;;;4.80;4.40;;;;;;;;;;5052951;28;20197;-71
2023/06/24 07:36:15;;;;;;;4.73;4.23;;;;;;;;;;5053286;28;20637;-71
2023/06/24 07:38:41;;;;;;;4.97;4.47;;;;;;;;;;5044502;28;20265;-71
2023/06/24 07:41:07;;;;;;;5.30;4.50;;;;;;;;;;5050155;28;20206;-71
2023/06/24 07:43:33;;;;;;;4.80;4.30;;;;;;;;;;5049838;28;20216;-71
2023/06/24 07:45:59;;;;;;;6.13;4.63;;;;;;;;;;5039060;28;20237;-76
2023/06/24 07:48:25;;;;;;;4.93;4.00;;;;;;;;;;5052450;28;20187;-73
2023/06/24 07:50:51;;;;;;;5.23;4.40;;;;;;;;;;5053482;28;20268;-76
2023/06/24 07:53:17;;;;;;;4.60;4.13;;;;;;;;;;5050733;28;20540;-76
2023/06/24 07:55:43;;;;;;;4.43;4.03;;;;;;;;;;5041595;28;20190;-76
2023/06/24 07:58:10;;;;;;;4.50;4.10;;;;;;;;;;5038448;28;20193;-76
2023/06/24 08:00:36;;;;;;;6.47;4.17;;;;;;;;;;5036861;28;20186;-76
2023/06/24 08:03:02;;;;;;;4.73;4.20;;;;;;;;;;5040496;28;20304;-75
2023/06/24 08:05:28;;;;;;;4.77;4.27;;;;;;;;;;5037883;28;20183;-76
2023/06/24 08:07:54;;;;;;;4.70;4.30;;;;;;;;;;5043667;28;20174;-75
2023/06/24 08:10:21;;;;;;;5.20;4.67;;;;;;;;;;5036212;28;20273;-75
2023/06/24 08:12:47;;;;;;;5.57;4.43;;;;;;;;;;5038336;28;20257;-75
2023/06/24 08:15:13;;;;;;;4.90;4.50;;;;;;;;;;5023873;28;20631;-76
2023/06/24 08:17:39;;;;;;;5.23;4.30;;;;;;;;;;5032705;28;20249;-74
2023/06/24 08:20:05;;;;;;;4.37;3.93;;;;;;;;;;5045243;28;20186;-76
2023/06/24 08:22:31;;;;;;;4.50;4.10;;;;;;;;;;5041151;28;20221;-76
2023/06/24 08:24:59;;;;;;;4.30;3.90;;;;;;;;;;5041087;28;20222;-76
2023/06/24 08:27:25;;;;;;;4.77;4.37;;;;;;;;;;5033443;28;20174;-75
2023/06/24 08:29:51;;;;;;;5.10;4.60;;;;;;;;;;5031558;28;20193;-75
2023/06/24 08:32:17;;;;;;;4.60;4.20;;;;;;;;;;5032228;28;20202;-75
2023/06/24 08:34:44;;;;;;;4.50;4.10;;;;;;;;;;5033820;28;20205;-76
2023/06/24 08:37:10;;;;;;;4.40;4.00;;;;;;;;;;5039336;28;20189;-77
2023/06/24 08:39:38;;;;;;;4.53;4.13;;;;;;;;;;5032634;28;20634;-74
2023/06/24 08:42:04;;;;;;;4.40;4.00;;;;;;;;;;5038292;28;20202;-75
2023/06/24 08:44:31;;;;;;;5.17;3.93;;;;;;;;;;5036286;28;20201;-76
2023/06/24 08:46:57;;;;;;;4.47;4.07;;;;;;;;;;5035134;28;20546;-76
2023/06/24 08:49:23;;;;;;;4.40;4.00;;;;;;;;;;5038237;28;20214;-77
2023/06/24 08:52:00;;;;;;;4.50;4.10;;;;;;;;;;5032750;28;20197;-76
2023/06/24 08:54:26;;;;;;;5.27;4.40;;;;;;;;;;5029148;28;20683;-76
2023/06/24 08:56:53;;;;;;;4.10;3.70;;;;;;;;;;5035271;28;20178;-74
2023/06/24 08:59:20;;;;;;;4.40;4.00;;;;;;;;;;5035768;28;20194;-75
2023/06/24 09:01:47;;;;;;;5.27;3.97;;;;;;;;;;5034127;28;20180;-75
2023/06/24 09:04:15;;;;;;;6.17;4.43;;;;;;;;;;5014940;28;20574;-75
2023/06/24 09:06:41;;;;;;;4.30;3.90;;;;;;;;;;5035854;28;20299;-75
2023/06/24 09:09:21;;;;;;;4.43;4.03;;;;;;;;;;5015964;28;20174;-75
2023/06/24 09:11:57;;;;;;;5.00;4.50;;;;;;;;;;5033220;28;20228;-74
2023/06/24 09:14:27;;;;;;;4.90;4.40;;;;;;;;;;5042307;28;20202;-75
2023/06/24 09:16:53;;;;;;;4.80;4.27;;;;;;;;;;5041410;28;20184;-75
2023/06/24 09:19:23;;;;;;;4.40;4.00;;;;;;;;;;5029603;28;20186;-75
2023/06/24 09:21:51;;;;;;;6.13;4.50;;;;;;;;;;5031769;28;20558;-74
2023/06/24 09:24:17;;;;;;;5.80;4.30;;;;;;;;;;5032476;28;20211;-75
2023/06/24 09:26:47;;;;;;;4.50;4.10;;;;;;;;;;5031228;28;20653;-73
2023/06/24 09:29:14;;;;;;;4.90;4.40;;;;;;;;;;5033739;28;20182;-74
2023/06/24 09:31:52;;;;;;;5.27;4.30;;;;;;;;;;5029074;28;20559;-75
2023/06/24 09:34:19;;;;;;;4.73;4.23;;;;;;;;;;5033351;28;20212;-73
2023/06/24 09:36:46;;;;;;;4.80;4.27;;;;;;;;;;5028861;28;20179;-74
2023/06/24 09:39:12;;;;;;;5.53;4.30;;;;;;;;;;5034613;28;20186;-75
2023/06/24 09:41:42;;;;;;;4.80;4.30;;;;;;;;;;5032422;28;20178;-75
2023/06/24 09:44:09;;;;;;;4.60;4.20;;;;;;;;;;5032676;28;20214;-73
2023/06/24 09:46:36;;;;;;;4.83;4.20;;;;;;;;;;5029510;28;20282;-73
2023/06/24 09:49:03;;;;;;;4.33;3.93;;;;;;;;;;5032138;28;20548;-75
2023/06/24 09:51:29;;;;;;;5.40;4.57;;;;;;;;;;5027793;28;20221;-73
2023/06/24 09:53:57;;;;;;;4.67;4.27;;;;;;;;;;5031589;28;20843;-77
2023/06/24 09:56:23;;;;;;;4.50;4.10;;;;;;;;;;5042656;28;20186;-78
2023/06/24 09:58:50;;;;;;;4.03;3.63;;;;;;;;;;5024196;28;20217;-79
2023/06/24 10:01:16;;;;;;;5.60;4.10;;;;;;;;;;5035364;28;20941;-74
2023/06/24 10:03:43;;;;;;;5.57;4.40;;;;;;;;;;5035872;28;22053;-75
2023/06/24 10:06:09;;;;;;;4.90;4.50;;;;;;;;;;5038201;28;20190;-74
2023/06/24 10:08:35;;;;;;;4.87;4.37;;;;;;;;;;5037818;28;20308;-77
2023/06/24 10:11:02;;;;;;;4.73;4.33;;;;;;;;;;5031214;28;20190;-73
2023/06/24 10:13:28;;;;;;;4.40;4.00;;;;;;;;;;5035590;28;20201;-74
2023/06/24 10:15:56;;;;;;;4.73;4.33;;;;;;;;;;5037997;28;20189;-78
2023/06/24 10:18:31;;;;;;;4.33;3.93;;;;;;;;;;5038759;28;20615;-78
2023/06/24 10:20:58;;;;;;;4.20;3.80;;;;;;;;;;5031175;28;20287;-76
2023/06/24 10:23:30;;;;;;;4.83;3.97;;;;;;;;;;5029582;28;20316;-76
2023/06/24 10:25:56;;;;;;;4.23;3.83;;;;;;;;;;5031443;28;20572;-76
2023/06/24 10:28:23;;;;;;;4.53;4.13;;;;;;;;;;5029839;28;20284;-77
2023/06/24 10:30:55;;;;;;;4.50;4.10;;;;;;;;;;5030380;28;20189;-77
2023/06/24 10:33:21;;;;;;;4.70;4.27;;;;;;;;;;5039203;28;20201;-75
2023/06/24 10:35:47;;;;;;;4.30;3.90;;;;;;;;;;5019787;28;20206;-75
2023/06/24 10:38:13;;;;;;;4.33;3.97;;;;;;;;;;5024770;28;20189;-75
2023/06/24 10:40:40;;;;;;;4.87;4.30;;;;;;;;;;5015700;28;20196;-75
2023/06/24 10:43:27;;;;;;;3.93;3.63;;;;;;;;;;5029526;28;20212;-75
2023/06/24 10:45:55;;;;;;;4.20;3.90;;;;;;;;;;5036889;28;20184;-75
2023/06/24 10:48:21;;;;;;;4.03;3.73;;;;;;;;;;5032384;28;20278;-75
2023/06/24 10:50:49;;;;;;;5.33;3.63;;;;;;;;;;5035167;28;20197;-75
2023/06/24 10:53:18;;;;;;;4.67;3.70;;;;;;;;;;5040410;28;20207;-74
2023/06/24 10:55:46;;;;;;;4.30;3.90;;;;;;;;;;5036392;28;20189;-75
2023/06/24 10:58:14;;;;;;;3.80;3.50;;;;;;;;;;5040353;28;20190;-75
2023/06/24 11:00:41;;;;;;;4.03;3.67;;;;;;;;;;5034341;28;20192;-75
2023/06/24 11:03:10;;;;;;;4.00;3.60;;;;;;;;;;5024087;28;20692;-75
2023/06/24 11:05:43;;;;;;;4.10;3.80;;;;;;;;;;5024290;28;20360;-75
2023/06/24 11:08:10;;;;;;;4.33;3.90;;;;;;;;;;5037044;28;20169;-76
2023/06/24 11:10:43;;;;;;;3.90;3.60;;;;;;;;;;5036626;28;20716;-75
2023/06/24 11:13:09;;;;;;;4.03;3.63;;;;;;;;;;5032465;28;20237;-76
2023/06/24 11:15:35;;;;;;;4.20;3.90;;;;;;;;;;5040995;28;20200;-76
2023/06/24 11:18:04;;;;;;;4.17;3.87;;;;;;;;;;5039474;28;20706;-76
2023/06/24 11:20:31;;;;;;;4.13;3.37;;;;;;;;;;5034232;28;20200;-76
2023/06/24 11:22:57;;;;;;;4.33;3.93;;;;;;;;;;5039590;28;20673;-74
2023/06/24 11:25:24;;;;;;;4.33;3.47;;;;;;;;;;5039305;28;24352;-75
2023/06/24 11:27:52;;;;;;;4.10;3.80;;;;;;;;;;5039938;28;20193;-74
2023/06/24 11:30:18;;;;;;;4.53;3.80;;;;;;;;;;5039315;28;20602;-75
2023/06/24 11:32:45;;;;;;;4.53;3.93;;;;;;;;;;5033309;28;20215;-74
2023/06/24 11:35:14;;;;;;;4.20;3.70;;;;;;;;;;5033664;28;20202;-75
2023/06/24 11:37:43;;;;;;;4.00;3.60;;;;;;;;;;5036453;28;20658;-75
2023/06/24 11:40:10;;;;;;;4.67;4.03;;;;;;;;;;5037575;28;20188;-75
2023/06/24 11:42:37;;;;;;;4.40;4.00;;;;;;;;;;5039982;28;20210;-75
2023/06/24 11:45:04;;;;;;;4.07;3.77;;;;;;;;;;5037133;28;20179;-75
2023/06/24 11:47:34;;;;;;;4.20;3.67;;;;;;;;;;5030875;28;20228;-75
2023/06/24 11:50:05;;;;;;;4.40;3.57;;;;;;;;;;5016345;28;20186;-75
2023/06/24 11:52:41;;;;;;;4.00;3.67;;;;;;;;;;5042688;28;20189;-75
2023/06/24 11:55:18;;;;;;;4.43;3.77;;;;;;;;;;5031610;28;20190;-75
2023/06/24 11:57:55;;;;;;;5.43;4.10;;;;;;;;;;5040072;28;20186;-75
2023/06/24 12:00:28;;;;;;;4.20;3.80;;;;;;;;;;5031035;28;20716;-75
2023/06/24 12:02:55;;;;;;;3.97;3.57;;;;;;;;;;5039463;28;21064;-75
2023/06/24 12:05:26;;;;;;;3.80;3.50;;;;;;;;;;5039193;28;20188;-75
2023/06/24 12:07:53;;;;;;;4.13;3.73;;;;;;;;;;5032290;28;20188;-75
2023/06/24 12:10:20;;;;;;;4.10;3.70;;;;;;;;;;5037172;28;20180;-75
2023/06/24 12:12:46;;;;;;;3.80;3.50;;;;;;;;;;5033905;28;20204;-75
2023/06/24 12:15:12;;;;;;;4.27;3.93;;;;;;;;;;5035288;28;20187;-75
2023/06/24 12:17:38;;;;;;;6.20;3.63;;;;;;;;;;5039673;28;20191;-76
2023/06/24 12:20:05;;;;;;;4.37;3.90;;;;;;;;;;5034669;28;20194;-76
2023/06/24 12:22:31;;;;;;;4.07;3.70;;;;;;;;;;5031087;28;20722;-76
2023/06/24 12:24:57;;;;;;;4.57;4.00;;;;;;;;;;5031162;28;20185;-77
2023/06/24 12:27:23;;;;;;;4.27;3.87;;;;;;;;;;5038913;28;20196;-77
2023/06/24 12:29:49;;;;;;;3.70;3.40;;;;;;;;;;5033582;28;20208;-76
2023/06/24 12:32:16;;;;;;;4.20;3.80;;;;;;;;;;5033168;28;20699;-76
2023/06/24 12:34:42;;;;;;;3.80;3.50;;;;;;;;;;5035598;28;20205;-74
2023/06/24 12:37:08;;;;;;;3.80;3.50;;;;;;;;;;5035952;28;20190;-78
2023/06/24 12:39:34;;;;;;;3.47;3.17;;;;;;;;;;5041409;28;20181;-74
2023/06/24 12:42:01;;;;;;;3.70;3.40;;;;;;;;;;5048875;28;20189;-75
2023/06/24 12:44:27;;;;;;;3.80;3.50;;;;;;;;;;5051128;28;20601;-74
2023/06/24 12:46:53;;;;;;;3.77;3.47;;;;;;;;;;5042735;28;20258;-75
2023/06/24 12:49:19;;;;;;;3.90;3.50;;;;;;;;;;5056036;28;20651;-75
2023/06/24 12:51:45;;;;;;;3.87;3.43;;;;;;;;;;5036051;28;20176;-75
2023/06/24 12:54:12;;;;;;;3.73;3.43;;;;;;;;;;5032541;28;20323;-75
2023/06/24 12:56:38;;;;;;;3.47;3.27;;;;;;;;;;5033873;28;20684;-74
2023/06/24 12:59:05;;;;;;;3.50;3.30;;;;;;;;;;5031294;28;20201;-74
2023/06/24 13:01:32;;;;;;;3.60;3.30;;;;;;;;;;5041674;28;20195;-75
2023/06/24 13:03:58;;;;;;;3.60;3.30;;;;;;;;;;5043173;28;20210;-75
2023/06/24 13:06:25;;;;;;;4.60;3.93;;;;;;;;;;5044677;28;20589;-73
2023/06/24 13:08:51;;;;;;;5.70;3.87;;;;;;;;;;5042622;28;20286;-75
2023/06/24 13:11:18;;;;;;;4.07;3.77;;;;;;;;;;5044316;28;20206;-75
2023/06/24 13:13:44;;;;;;;4.03;3.63;;;;;;;;;;5032051;28;20686;-75
2023/06/24 13:16:10;;;;;;;4.87;3.73;;;;;;;;;;5036777;28;20249;-74
2023/06/24 13:18:36;;;;;;;3.60;3.30;;;;;;;;;;5048919;28;20196;-74
2023/06/24 13:21:02;;;;;;;3.50;3.30;;;;;;;;;;5063791;28;20181;-75
2023/06/24 13:23:28;;;;;;;3.30;2.97;;;;;;;;;;5065992;28;20206;-75
2023/06/24 13:25:54;;;;;;;4.13;3.73;;;;;;;;;;5043752;28;20545;-75
2023/06/24 13:28:20;;;;;;;3.47;3.17;;;;;;;;;;5043519;28;20193;-75
2023/06/24 13:30:47;;;;;;;4.97;3.10;;;;;;;;;;5048399;28;20175;-75
2023/06/24 13:33:13;;;;;;;3.20;3.00;;;;;;;;;;5045589;28;20208;-75
2023/06/24 13:35:40;;;;;;;3.13;2.93;;;;;;;;;;5044609;28;20191;-75
2023/06/24 13:38:07;;;;;;;4.72;3.40;;;;;;;;;;5035580;28;20190;-75
2023/06/24 13:40:34;;;;;;;3.63;3.30;;;;;;;;;;5038826;28;20271;-76
2023/06/24 13:43:01;;;;;;;3.45;2.88;;;;;;;;;;5036589;28;20676;-75
2023/06/24 13:45:27;;;;;;;3.17;2.95;;;;;;;;;;5039350;28;20188;-75
2023/06/24 13:47:54;;;;;;;4.90;3.28;;;;;;;;;;5032606;28;20540;-76
2023/06/24 13:50:20;;;;;;;3.45;3.17;;;;;;;;;;5029748;28;20189;-75
2023/06/24 13:52:46;;;;;;;3.22;3.03;;;;;;;;;;5031166;28;20548;-75
2023/06/24 13:55:13;;;;;;;3.30;3.10;;;;;;;;;;5044582;28;20180;-75
2023/06/24 13:57:39;;;;;;;3.30;2.95;;;;;;;;;;5039643;28;20550;-75
2023/06/24 14:00:05;;;;;;;3.38;3.00;;;;;;;;;;5038213;28;20817;-75
2023/06/24 14:02:38;;;;;;;3.50;2.97;;;;;;;;;;5046516;28;20202;-75
2023/06/24 14:05:05;;;;;;;3.13;2.92;;;;;;;;;;5049944;28;20266;-75
2023/06/24 14:07:31;;;;;;;3.53;3.25;;;;;;;;;;5046937;28;20225;-76
2023/06/24 14:09:57;;;;;;;3.30;3.08;;;;;;;;;;5045905;28;20650;-74
2023/06/24 14:12:23;;;;;;;3.78;3.47;;;;;;;;;;5038366;28;20515;-74
2023/06/24 14:14:49;;;;;;;3.60;3.40;;;;;;;;;;5049541;28;20187;-78
2023/06/24 14:17:15;;;;;;;3.83;3.53;;;;;;;;;;5044047;28;20545;-77
2023/06/24 14:19:42;;;;;;;3.88;3.58;;;;;;;;;;5042378;28;20558;-77
2023/06/24 14:22:08;;;;;;;3.35;3.10;;;;;;;;;;5039125;28;20193;-75
2023/06/24 14:24:35;;;;;;;3.53;3.25;;;;;;;;;;5033578;28;20523;-78
2023/06/24 14:27:01;;;;;;;3.78;3.47;;;;;;;;;;5036428;28;20271;-78
2023/06/24 14:29:28;;;;;;;3.50;3.20;;;;;;;;;;5038672;28;20175;-78
2023/06/24 14:31:54;;;;;;;3.72;3.42;;;;;;;;;;5053964;28;20753;-78
2023/06/24 14:34:20;;;;;;;3.53;3.22;;;;;;;;;;5052770;28;20284;-78
2023/06/24 14:36:46;;;;;;;3.20;3.00;;;;;;;;;;5041094;28;20179;-78
2023/06/24 14:39:16;;;;;;;3.65;3.35;;;;;;;;;;5038500;28;20188;-78
2023/06/24 14:41:42;;;;;;;4.15;3.45;;;;;;;;;;5050588;28;20616;-78
2023/06/24 14:44:08;;;;;;;3.17;2.97;;;;;;;;;;5041463;28;20208;-78